sensor_id;sensor_type;location;lat;lon;timestamp;pressure;altitude;pressure_sealevel;temperature;humidity
78411;BME280;67706;51.074;-1.796;2023-02-24T00:01:53;101549.75;;;1.05;74.84
78411;BME280;67706;51.074;-1.796;2023-02-24T00:04:26;101554.34;;;1.16;74.23
78411;BME280;67706;51.074;-1.796;2023-02-24T00:06:55;101554.22;;;1.06;74.11
78411;BME280;67706;51.074;-1.796;2023-02-24T00:09:23;101548.81;;;1.06;74.51
78411;BME280;67706;51.074;-1.796;2023-02-24T00:11:52;101541.06;;;1.02;74.40
78411;BME280;67706;51.074;-1.796;2023-02-24T00:14:20;101542.66;;;1.04;74.66
78411;BME280;67706;51.074;-1.796;2023-02-24T00:16:50;101546.69;;;0.99;74.86
78411;BME280;67706;51.074;-1.796;2023-02-24T00:19:18;101531.94;;;0.92;74.89
78411;BME280;67706;51.074;-1.796;2023-02-24T00:21:45;101529.88;;;0.95;74.86
78411;BME280;67706;51.074;-1.796;2023-02-24T00:24:13;101522.75;;;1.05;74.61
78411;BME280;67706;51.074;-1.796;2023-02-24T00:26:41;101530.38;;;1.00;75.01
78411;BME280;67706;51.074;-1.796;2023-02-24T00:29:09;101523.75;;;1.04;75.38
78411;BME280;67706;51.074;-1.796;2023-02-24T00:31:37;101518.31;;;0.93;75.66
78411;BME280;67706;51.074;-1.796;2023-02-24T00:34:06;101524.59;;;0.94;75.93
78411;BME280;67706;51.074;-1.796;2023-02-24T00:36:33;101517.31;;;0.83;76.65
78411;BME280;67706;51.074;-1.796;2023-02-24T00:39:02;101500.94;;;0.73;77.14
78411;BME280;67706;51.074;-1.796;2023-02-24T00:41:39;101507.25;;;0.85;76.68
78411;BME280;67706;51.074;-1.796;2023-02-24T00:44:07;101503.09;;;0.92;76.24
78411;BME280;67706;51.074;-1.796;2023-02-24T00:46:37;101504.31;;;0.99;75.92
78411;BME280;67706;51.074;-1.796;2023-02-24T00:49:05;101506.06;;;1.00;76.27
78411;BME280;67706;51.074;-1.796;2023-02-24T00:51:36;101504.31;;;0.99;76.74
78411;BME280;67706;51.074;-1.796;2023-02-24T00:54:03;101495.09;;;0.91;76.61
78411;BME280;67706;51.074;-1.796;2023-02-24T00:56:30;101493.72;;;0.74;76.81
78411;BME280;67706;51.074;-1.796;2023-02-24T00:58:58;101488.69;;;0.69;76.77
78411;BME280;67706;51.074;-1.796;2023-02-24T01:01:27;101501.78;;;0.63;76.94
78411;BME280;67706;51.074;-1.796;2023-02-24T01:03:55;101495.91;;;0.58;77.13
78411;BME280;67706;51.074;-1.796;2023-02-24T01:06:24;101477.69;;;0.49;77.35
78411;BME280;67706;51.074;-1.796;2023-02-24T01:08:52;101478.34;;;0.52;76.79
78411;BME280;67706;51.074;-1.796;2023-02-24T01:11:21;101463.06;;;0.40;77.40
78411;BME280;67706;51.074;-1.796;2023-02-24T01:14:10;101465.28;;;0.46;77.25
78411;BME280;67706;51.074;-1.796;2023-02-24T01:16:38;101474.50;;;0.44;77.70
78411;BME280;67706;51.074;-1.796;2023-02-24T01:19:07;101467.16;;;0.46;77.69
78411;BME280;67706;51.074;-1.796;2023-02-24T01:21:34;101464.47;;;0.57;77.58
78411;BME280;67706;51.074;-1.796;2023-02-24T01:24:01;101462.97;;;0.42;77.06
78411;BME280;67706;51.074;-1.796;2023-02-24T01:26:28;101455.09;;;0.39;77.13
78411;BME280;67706;51.074;-1.796;2023-02-24T01:28:55;101448.22;;;0.35;77.00
78411;BME280;67706;51.074;-1.796;2023-02-24T01:31:24;101445.41;;;0.36;77.09
78411;BME280;67706;51.074;-1.796;2023-02-24T01:33:53;101444.53;;;0.36;77.12
78411;BME280;67706;51.074;-1.796;2023-02-24T01:36:21;101441.34;;;0.31;76.75
78411;BME280;67706;51.074;-1.796;2023-02-24T01:38:48;101436.53;;;0.23;77.53
78411;BME280;67706;51.074;-1.796;2023-02-24T01:41:16;101436.38;;;0.14;77.51
78411;BME280;67706;51.074;-1.796;2023-02-24T01:43:54;101436.97;;;0.06;77.63
78411;BME280;67706;51.074;-1.796;2023-02-24T01:46:24;101434.16;;;0.08;77.86
78411;BME280;67706;51.074;-1.796;2023-02-24T01:48:56;101441.25;;;0.09;77.88
78411;BME280;67706;51.074;-1.796;2023-02-24T01:51:23;101430.44;;;-0.03;77.96
78411;BME280;67706;51.074;-1.796;2023-02-24T01:53:53;101424.97;;;0.10;77.90
78411;BME280;67706;51.074;-1.796;2023-02-24T01:56:20;101424.63;;;0.15;78.03
78411;BME280;67706;51.074;-1.796;2023-02-24T01:58:47;101426.19;;;0.17;77.74
78411;BME280;67706;51.074;-1.796;2023-02-24T02:01:15;101419.44;;;0.12;77.93
78411;BME280;67706;51.074;-1.796;2023-02-24T02:03:45;101416.94;;;-0.03;78.38
78411;BME280;67706;51.074;-1.796;2023-02-24T02:06:14;101411.56;;;-0.03;78.56
78411;BME280;67706;51.074;-1.796;2023-02-24T02:08:43;101426.06;;;0.08;78.19
78411;BME280;67706;51.074;-1.796;2023-02-24T02:11:12;101422.75;;;0.15;77.96
78411;BME280;67706;51.074;-1.796;2023-02-24T02:13:48;101412.25;;;0.23;77.06
78411;BME280;67706;51.074;-1.796;2023-02-24T02:16:55;101414.19;;;0.10;77.60
78411;BME280;67706;51.074;-1.796;2023-02-24T02:19:52;101405.69;;;0.04;77.18
78411;BME280;67706;51.074;-1.796;2023-02-24T02:22:38;101406.72;;;0.14;77.53
78411;BME280;67706;51.074;-1.796;2023-02-24T02:25:17;101403.00;;;0.04;77.29
78411;BME280;67706;51.074;-1.796;2023-02-24T02:30:47;101399.50;;;-0.10;78.28
78411;BME280;67706;51.074;-1.796;2023-02-24T02:36:29;101383.66;;;-0.14;78.57
78411;BME280;67706;51.074;-1.796;2023-02-24T02:39:02;101394.50;;;-0.03;77.95
78411;BME280;67706;51.074;-1.796;2023-02-24T02:41:44;101377.94;;;-0.10;78.39
78411;BME280;67706;51.074;-1.796;2023-02-24T02:44:18;101378.81;;;-0.09;78.22
78411;BME280;67706;51.074;-1.796;2023-02-24T02:46:47;101381.63;;;0.00;78.08
78411;BME280;67706;51.074;-1.796;2023-02-24T02:49:20;101383.78;;;-0.16;78.18
78411;BME280;67706;51.074;-1.796;2023-02-24T02:51:50;101383.41;;;-0.22;78.56
78411;BME280;67706;51.074;-1.796;2023-02-24T02:54:24;101378.41;;;-0.16;79.07
78411;BME280;67706;51.074;-1.796;2023-02-24T02:56:58;101362.34;;;-0.17;78.52
78411;BME280;67706;51.074;-1.796;2023-02-24T02:59:30;101366.28;;;-0.10;78.38
78411;BME280;67706;51.074;-1.796;2023-02-24T03:01:58;101358.31;;;-0.12;78.72
78411;BME280;67706;51.074;-1.796;2023-02-24T03:04:38;101364.44;;;-0.10;78.25
78411;BME280;67706;51.074;-1.796;2023-02-24T03:07:09;101351.72;;;-0.08;78.22
78411;BME280;67706;51.074;-1.796;2023-02-24T03:09:40;101345.97;;;-0.03;77.97
78411;BME280;67706;51.074;-1.796;2023-02-24T03:12:11;101338.00;;;-0.05;77.59
78411;BME280;67706;51.074;-1.796;2023-02-24T03:14:42;101328.44;;;0.03;77.82
78411;BME280;67706;51.074;-1.796;2023-02-24T03:17:18;101330.06;;;0.05;77.59
78411;BME280;67706;51.074;-1.796;2023-02-24T03:19:48;101322.34;;;0.12;77.51
78411;BME280;67706;51.074;-1.796;2023-02-24T03:22:24;101321.00;;;0.06;77.72
78411;BME280;67706;51.074;-1.796;2023-02-24T03:24:54;101328.59;;;0.12;77.27
78411;BME280;67706;51.074;-1.796;2023-02-24T03:27:26;101329.19;;;0.05;77.69
78411;BME280;67706;51.074;-1.796;2023-02-24T03:29:56;101322.34;;;0.12;77.69
78411;BME280;67706;51.074;-1.796;2023-02-24T03:32:27;101309.38;;;0.17;76.98
78411;BME280;67706;51.074;-1.796;2023-02-24T03:35:00;101314.03;;;0.15;77.40
78411;BME280;67706;51.074;-1.796;2023-02-24T03:37:32;101291.72;;;0.35;76.83
78411;BME280;67706;51.074;-1.796;2023-02-24T03:40:03;101298.38;;;0.42;76.80
78411;BME280;67706;51.074;-1.796;2023-02-24T03:42:38;101300.28;;;0.18;77.72
78411;BME280;67706;51.074;-1.796;2023-02-24T03:45:06;101288.78;;;0.27;77.82
78411;BME280;67706;51.074;-1.796;2023-02-24T03:47:34;101291.22;;;0.19;77.63
78411;BME280;67706;51.074;-1.796;2023-02-24T03:50:02;101282.50;;;0.15;78.14
78411;BME280;67706;51.074;-1.796;2023-02-24T03:52:37;101273.81;;;0.34;77.17
78411;BME280;67706;51.074;-1.796;2023-02-24T03:55:28;101269.88;;;0.38;77.08
78411;BME280;67706;51.074;-1.796;2023-02-24T03:58:07;101268.41;;;0.34;77.03
78411;BME280;67706;51.074;-1.796;2023-02-24T04:00:39;101265.84;;;0.54;76.39
78411;BME280;67706;51.074;-1.796;2023-02-24T04:03:19;101259.81;;;0.51;76.44
78411;BME280;67706;51.074;-1.796;2023-02-24T04:05:57;101251.63;;;0.52;76.85
78411;BME280;67706;51.074;-1.796;2023-02-24T04:08:36;101266.19;;;0.61;76.21
78411;BME280;67706;51.074;-1.796;2023-02-24T04:11:10;101262.75;;;0.59;76.56
78411;BME280;67706;51.074;-1.796;2023-02-24T04:13:42;101255.41;;;0.61;76.46
78411;BME280;67706;51.074;-1.796;2023-02-24T04:16:12;101249.03;;;0.62;75.66
78411;BME280;67706;51.074;-1.796;2023-02-24T04:18:47;101252.09;;;0.68;75.57
78411;BME280;67706;51.074;-1.796;2023-02-24T04:21:17;101246.31;;;0.62;75.44
78411;BME280;67706;51.074;-1.796;2023-02-24T04:23:46;101245.22;;;0.64;75.65
78411;BME280;67706;51.074;-1.796;2023-02-24T04:26:15;101249.53;;;0.67;75.92
78411;BME280;67706;51.074;-1.796;2023-02-24T04:28:43;101232.59;;;0.65;76.00
78411;BME280;67706;51.074;-1.796;2023-02-24T04:31:13;101239.19;;;0.61;76.19
78411;BME280;67706;51.074;-1.796;2023-02-24T04:33:43;101226.19;;;0.66;76.54
78411;BME280;67706;51.074;-1.796;2023-02-24T04:36:15;101236.25;;;0.75;76.24
78411;BME280;67706;51.074;-1.796;2023-02-24T04:38:42;101226.91;;;0.79;76.00
78411;BME280;67706;51.074;-1.796;2023-02-24T04:41:11;101223.47;;;0.77;76.32
78411;BME280;67706;51.074;-1.796;2023-02-24T04:43:42;101228.88;;;0.77;75.80
78411;BME280;67706;51.074;-1.796;2023-02-24T04:46:09;101230.34;;;0.81;76.00
78411;BME280;67706;51.074;-1.796;2023-02-24T04:48:37;101226.66;;;0.82;75.40
78411;BME280;67706;51.074;-1.796;2023-02-24T04:51:04;101217.94;;;0.90;75.30
78411;BME280;67706;51.074;-1.796;2023-02-24T04:53:31;101223.84;;;0.84;75.34
78411;BME280;67706;51.074;-1.796;2023-02-24T04:56:01;101218.53;;;0.93;75.26
78411;BME280;67706;51.074;-1.796;2023-02-24T04:58:34;101212.03;;;0.96;75.19
78411;BME280;67706;51.074;-1.796;2023-02-24T05:01:06;101211.16;;;0.95;74.89
78411;BME280;67706;51.074;-1.796;2023-02-24T05:03:35;101204.34;;;1.12;74.82
78411;BME280;67706;51.074;-1.796;2023-02-24T05:06:03;101202.31;;;1.25;73.94
78411;BME280;67706;51.074;-1.796;2023-02-24T05:08:31;101197.25;;;1.11;74.40
78411;BME280;67706;51.074;-1.796;2023-02-24T05:10:58;101197.13;;;1.01;74.44
78411;BME280;67706;51.074;-1.796;2023-02-24T05:13:28;101197.75;;;1.05;75.42
78411;BME280;67706;51.074;-1.796;2023-02-24T05:15:59;101196.00;;;1.15;75.27
78411;BME280;67706;51.074;-1.796;2023-02-24T05:18:28;101188.22;;;1.21;74.57
78411;BME280;67706;51.074;-1.796;2023-02-24T05:21:04;101186.06;;;1.36;74.01
78411;BME280;67706;51.074;-1.796;2023-02-24T05:23:49;101192.09;;;1.28;73.64
78411;BME280;67706;51.074;-1.796;2023-02-24T05:26:18;101187.19;;;1.33;74.19
78411;BME280;67706;51.074;-1.796;2023-02-24T05:28:47;101186.84;;;1.47;73.43
78411;BME280;67706;51.074;-1.796;2023-02-24T05:31:20;101181.97;;;1.41;73.57
78411;BME280;67706;51.074;-1.796;2023-02-24T05:33:51;101179.75;;;1.46;73.52
78411;BME280;67706;51.074;-1.796;2023-02-24T05:36:20;101165.94;;;1.49;72.55
78411;BME280;67706;51.074;-1.796;2023-02-24T05:38:49;101171.94;;;1.53;72.64
78411;BME280;67706;51.074;-1.796;2023-02-24T05:41:20;101161.47;;;1.59;72.66
78411;BME280;67706;51.074;-1.796;2023-02-24T05:43:49;101166.03;;;1.59;72.87
78411;BME280;67706;51.074;-1.796;2023-02-24T05:46:21;101163.03;;;1.62;72.71
78411;BME280;67706;51.074;-1.796;2023-02-24T05:48:52;101148.56;;;1.63;71.39
78411;BME280;67706;51.074;-1.796;2023-02-24T05:51:21;101155.25;;;1.69;71.58
78411;BME280;67706;51.074;-1.796;2023-02-24T05:53:49;101149.72;;;1.70;71.81
78411;BME280;67706;51.074;-1.796;2023-02-24T05:56:20;101153.03;;;1.74;71.45
78411;BME280;67706;51.074;-1.796;2023-02-24T05:58:47;101158.16;;;1.77;71.07
78411;BME280;67706;51.074;-1.796;2023-02-24T06:01:15;101144.31;;;1.70;70.89
78411;BME280;67706;51.074;-1.796;2023-02-24T06:03:45;101135.06;;;1.73;72.12
78411;BME280;67706;51.074;-1.796;2023-02-24T06:06:12;101146.91;;;1.72;71.23
78411;BME280;67706;51.074;-1.796;2023-02-24T06:08:40;101151.47;;;1.81;71.21
78411;BME280;67706;51.074;-1.796;2023-02-24T06:11:15;101153.59;;;1.77;70.83
78411;BME280;67706;51.074;-1.796;2023-02-24T06:13:43;101133.22;;;1.73;71.75
78411;BME280;67706;51.074;-1.796;2023-02-24T06:16:12;101127.69;;;1.75;71.73
78411;BME280;67706;51.074;-1.796;2023-02-24T06:18:40;101127.69;;;1.75;71.53
78411;BME280;67706;51.074;-1.796;2023-02-24T06:21:08;101119.84;;;1.72;72.05
78411;BME280;67706;51.074;-1.796;2023-02-24T06:23:37;101109.88;;;1.72;71.72
78411;BME280;67706;51.074;-1.796;2023-02-24T06:26:04;101116.94;;;1.63;72.31
78411;BME280;67706;51.074;-1.796;2023-02-24T06:28:37;101102.19;;;1.68;72.42
78411;BME280;67706;51.074;-1.796;2023-02-24T06:31:04;101091.88;;;1.61;72.82
78411;BME280;67706;51.074;-1.796;2023-02-24T06:33:32;101087.09;;;1.65;72.72
78411;BME280;67706;51.074;-1.796;2023-02-24T06:36:00;101088.56;;;1.79;72.48
78411;BME280;67706;51.074;-1.796;2023-02-24T06:38:29;101080.59;;;1.77;72.16
78411;BME280;67706;51.074;-1.796;2023-02-24T06:40:56;101073.09;;;1.60;72.91
78411;BME280;67706;51.074;-1.796;2023-02-24T06:43:23;101088.38;;;1.71;72.94
78411;BME280;67706;51.074;-1.796;2023-02-24T06:45:49;101081.00;;;1.73;72.88
78411;BME280;67706;51.074;-1.796;2023-02-24T06:48:16;101081.47;;;1.87;72.08
78411;BME280;67706;51.074;-1.796;2023-02-24T06:50:43;101095.56;;;1.81;72.29
78411;BME280;67706;51.074;-1.796;2023-02-24T06:53:10;101083.56;;;1.74;72.55
78411;BME280;67706;51.074;-1.796;2023-02-24T06:55:42;101083.56;;;1.74;73.21
78411;BME280;67706;51.074;-1.796;2023-02-24T06:58:15;101087.13;;;1.75;73.43
78411;BME280;67706;51.074;-1.796;2023-02-24T07:00:42;101086.84;;;1.78;72.90
78411;BME280;67706;51.074;-1.796;2023-02-24T07:03:22;101078.06;;;1.85;73.11
78411;BME280;67706;51.074;-1.796;2023-02-24T07:05:51;101083.47;;;1.85;73.38
78411;BME280;67706;51.074;-1.796;2023-02-24T07:08:35;101075.19;;;1.77;72.84
78411;BME280;67706;51.074;-1.796;2023-02-24T07:11:04;101093.72;;;1.82;73.08
78411;BME280;67706;51.074;-1.796;2023-02-24T07:13:32;101081.47;;;1.87;72.92
78411;BME280;67706;51.074;-1.796;2023-02-24T07:16:01;101079.34;;;1.91;72.99
78411;BME280;67706;51.074;-1.796;2023-02-24T07:18:31;101081.53;;;1.97;73.13
78411;BME280;67706;51.074;-1.796;2023-02-24T07:21:00;101075.13;;;1.98;73.13
78411;BME280;67706;51.074;-1.796;2023-02-24T07:23:30;101077.56;;;2.01;72.59
78411;BME280;67706;51.074;-1.796;2023-02-24T07:25:57;101067.28;;;1.95;73.20
78411;BME280;67706;51.074;-1.796;2023-02-24T07:28:25;101066.44;;;1.94;73.54
78411;BME280;67706;51.074;-1.796;2023-02-24T07:30:52;101062.41;;;1.89;73.88
78411;BME280;67706;51.074;-1.796;2023-02-24T07:33:18;101057.00;;;1.89;73.35
78411;BME280;67706;51.074;-1.796;2023-02-24T07:35:48;101051.88;;;1.86;72.84
78411;BME280;67706;51.074;-1.796;2023-02-24T07:38:16;101057.69;;;1.81;73.58
78411;BME280;67706;51.074;-1.796;2023-02-24T07:40:47;101056.41;;;1.85;73.14
78411;BME280;67706;51.074;-1.796;2023-02-24T07:43:14;101060.47;;;2.00;72.71
78411;BME280;67706;51.074;-1.796;2023-02-24T07:45:42;101055.19;;;1.99;72.63
78411;BME280;67706;51.074;-1.796;2023-02-24T07:48:09;101057.91;;;2.08;72.41
78411;BME280;67706;51.074;-1.796;2023-02-24T07:50:39;101063.31;;;2.08;71.58
78411;BME280;67706;51.074;-1.796;2023-02-24T07:53:06;101053.63;;;2.06;71.91
78411;BME280;67706;51.074;-1.796;2023-02-24T07:55:34;101061.38;;;2.20;72.37
78411;BME280;67706;51.074;-1.796;2023-02-24T07:58:02;101060.81;;;2.26;72.44
78411;BME280;67706;51.074;-1.796;2023-02-24T08:00:30;101050.28;;;2.32;71.80
78411;BME280;67706;51.074;-1.796;2023-02-24T08:03:15;101043.16;;;2.41;71.85
78411;BME280;67706;51.074;-1.796;2023-02-24T08:05:42;101037.19;;;2.47;71.97
78411;BME280;67706;51.074;-1.796;2023-02-24T08:08:09;101049.31;;;2.62;72.93
78411;BME280;67706;51.074;-1.796;2023-02-24T08:10:39;101042.91;;;2.63;71.60
78411;BME280;67706;51.074;-1.796;2023-02-24T08:13:06;101042.31;;;2.69;71.74
78411;BME280;67706;51.074;-1.796;2023-02-24T08:15:36;101044.78;;;2.72;71.41
78411;BME280;67706;51.074;-1.796;2023-02-24T08:18:02;101044.03;;;2.80;71.40
78411;BME280;67706;51.074;-1.796;2023-02-24T08:20:31;101041.47;;;2.88;70.75
78411;BME280;67706;51.074;-1.796;2023-02-24T08:23:16;101023.94;;;3.01;71.48
78411;BME280;67706;51.074;-1.796;2023-02-24T08:25:43;101023.03;;;3.10;71.00
78411;BME280;67706;51.074;-1.796;2023-02-24T08:28:11;101020.44;;;3.18;70.22
78411;BME280;67706;51.074;-1.796;2023-02-24T08:30:40;101021.56;;;3.26;70.47
78411;BME280;67706;51.074;-1.796;2023-02-24T08:33:11;101031.13;;;3.39;70.26
78411;BME280;67706;51.074;-1.796;2023-02-24T08:35:43;101028.25;;;3.41;70.06
78411;BME280;67706;51.074;-1.796;2023-02-24T08:38:13;101032.22;;;3.46;69.96
78411;BME280;67706;51.074;-1.796;2023-02-24T08:40:43;101021.09;;;3.40;69.77
78411;BME280;67706;51.074;-1.796;2023-02-24T08:43:20;101022.06;;;3.58;69.95
78411;BME280;67706;51.074;-1.796;2023-02-24T08:45:57;101022.75;;;3.60;69.80
78411;BME280;67706;51.074;-1.796;2023-02-24T08:48:26;101022.09;;;3.75;69.88
78411;BME280;67706;51.074;-1.796;2023-02-24T08:51:06;101008.34;;;3.86;69.41
78411;BME280;67706;51.074;-1.796;2023-02-24T08:53:34;101004.06;;;3.84;69.07
78411;BME280;67706;51.074;-1.796;2023-02-24T08:56:05;101014.56;;;3.96;69.25
78411;BME280;67706;51.074;-1.796;2023-02-24T08:58:36;101002.84;;;3.96;70.07
78411;BME280;67706;51.074;-1.796;2023-02-24T09:01:08;101005.38;;;4.07;69.66
78411;BME280;67706;51.074;-1.796;2023-02-24T09:03:43;101009.91;;;4.16;69.30
78411;BME280;67706;51.074;-1.796;2023-02-24T09:06:14;101003.34;;;4.09;69.17
78411;BME280;67706;51.074;-1.796;2023-02-24T09:08:44;100994.31;;;4.18;69.51
78411;BME280;67706;51.074;-1.796;2023-02-24T09:11:13;100989.97;;;4.25;69.29
78411;BME280;67706;51.074;-1.796;2023-02-24T09:13:42;100977.09;;;4.27;69.79
78411;BME280;67706;51.074;-1.796;2023-02-24T09:16:18;100980.34;;;4.31;69.79
78411;BME280;67706;51.074;-1.796;2023-02-24T09:18:45;100977.72;;;4.39;70.03
78411;BME280;67706;51.074;-1.796;2023-02-24T09:21:34;100976.78;;;4.48;69.57
78411;BME280;67706;51.074;-1.796;2023-02-24T09:24:18;100970.66;;;4.46;69.89
78411;BME280;67706;51.074;-1.796;2023-02-24T09:26:51;100964.16;;;4.56;69.77
78411;BME280;67706;51.074;-1.796;2023-02-24T09:29:23;100955.19;;;4.64;69.91
78411;BME280;67706;51.074;-1.796;2023-02-24T09:31:59;100962.25;;;4.74;70.22
78411;BME280;67706;51.074;-1.796;2023-02-24T09:34:31;100954.16;;;4.82;69.52
78411;BME280;67706;51.074;-1.796;2023-02-24T09:36:59;100954.84;;;4.84;69.76
78411;BME280;67706;51.074;-1.796;2023-02-24T09:39:30;100950.66;;;4.90;70.00
78411;BME280;67706;51.074;-1.796;2023-02-24T09:42:20;100945.59;;;4.95;69.93
78411;BME280;67706;51.074;-1.796;2023-02-24T09:45:12;100938.19;;;5.05;69.44
78411;BME280;67706;51.074;-1.796;2023-02-24T09:47:47;100932.91;;;5.04;70.02
78411;BME280;67706;51.074;-1.796;2023-02-24T09:50:25;100939.41;;;5.11;69.93
78411;BME280;67706;51.074;-1.796;2023-02-24T09:52:58;100934.97;;;5.10;70.21
78411;BME280;67706;51.074;-1.796;2023-02-24T09:55:43;100929.94;;;5.15;70.12
78411;BME280;67706;51.074;-1.796;2023-02-24T09:58:32;100930.28;;;5.20;70.26
78411;BME280;67706;51.074;-1.796;2023-02-24T10:01:17;100923.50;;;5.24;70.34
78411;BME280;67706;51.074;-1.796;2023-02-24T10:03:51;100917.22;;;5.23;70.50
78411;BME280;67706;51.074;-1.796;2023-02-24T10:06:30;100914.72;;;5.30;70.79
78411;BME280;67706;51.074;-1.796;2023-02-24T10:09:08;100915.44;;;5.40;70.79
78411;BME280;67706;51.074;-1.796;2023-02-24T10:11:41;100916.69;;;5.53;70.27
78411;BME280;67706;51.074;-1.796;2023-02-24T10:14:20;100916.56;;;5.63;70.00
78411;BME280;67706;51.074;-1.796;2023-02-24T10:16:50;100907.38;;;5.64;70.03
78411;BME280;67706;51.074;-1.796;2023-02-24T10:19:41;100898.56;;;5.78;70.55
78411;BME280;67706;51.074;-1.796;2023-02-24T10:22:15;100903.41;;;5.84;70.07
78411;BME280;67706;51.074;-1.796;2023-02-24T10:24:59;100892.88;;;5.97;71.05
78411;BME280;67706;51.074;-1.796;2023-02-24T10:27:40;100881.16;;;6.21;73.04
78411;BME280;67706;51.074;-1.796;2023-02-24T10:30:27;100882.88;;;6.38;73.15
78411;BME280;67706;51.074;-1.796;2023-02-24T10:33:12;100881.88;;;6.55;72.38
78411;BME280;67706;51.074;-1.796;2023-02-24T10:35:43;100873.19;;;6.60;72.59
78411;BME280;67706;51.074;-1.796;2023-02-24T10:38:10;100887.97;;;6.73;72.26
78411;BME280;67706;51.074;-1.796;2023-02-24T10:40:48;100886.09;;;6.82;72.10
78411;BME280;67706;51.074;-1.796;2023-02-24T10:43:23;100869.72;;;6.90;72.13
78411;BME280;67706;51.074;-1.796;2023-02-24T10:45:57;100877.56;;;6.93;72.09
78411;BME280;67706;51.074;-1.796;2023-02-24T10:48:32;100867.50;;;7.01;72.25
78411;BME280;67706;51.074;-1.796;2023-02-24T10:51:10;100866.56;;;7.17;71.82
78411;BME280;67706;51.074;-1.796;2023-02-24T10:53:45;100872.69;;;7.27;72.22
78411;BME280;67706;51.074;-1.796;2023-02-24T10:56:19;100862.09;;;7.32;72.09
78411;BME280;67706;51.074;-1.796;2023-02-24T10:59:03;100846.72;;;7.39;71.78
78411;BME280;67706;51.074;-1.796;2023-02-24T11:01:52;100859.63;;;7.53;72.02
78411;BME280;67706;51.074;-1.796;2023-02-24T11:04:32;100854.94;;;7.70;71.50
78411;BME280;67706;51.074;-1.796;2023-02-24T11:07:18;100868.34;;;7.79;71.80
78411;BME280;67706;51.074;-1.796;2023-02-24T11:10:02;100861.69;;;7.82;71.57
78411;BME280;67706;51.074;-1.796;2023-02-24T11:12:42;100857.13;;;7.74;71.86
78411;BME280;67706;51.074;-1.796;2023-02-24T11:15:31;100858.75;;;7.83;72.00
78411;BME280;67706;51.074;-1.796;2023-02-24T11:18:19;100858.16;;;7.96;71.86
78411;BME280;67706;51.074;-1.796;2023-02-24T11:20:49;100848.09;;;7.96;71.77
78411;BME280;67706;51.074;-1.796;2023-02-24T11:23:20;100852.75;;;7.88;71.94
78411;BME280;67706;51.074;-1.796;2023-02-24T11:25:50;100848.50;;;7.85;71.46
78411;BME280;67706;51.074;-1.796;2023-02-24T11:28:39;100857.63;;;8.00;71.74
78411;BME280;67706;51.074;-1.796;2023-02-24T11:31:20;100849.81;;;7.97;71.13
78411;BME280;67706;51.074;-1.796;2023-02-24T11:33:55;100841.81;;;8.19;70.77
78411;BME280;67706;51.074;-1.796;2023-02-24T11:36:31;100843.88;;;8.17;70.71
78411;BME280;67706;51.074;-1.796;2023-02-24T11:39:06;100841.44;;;8.22;70.65
78411;BME280;67706;51.074;-1.796;2023-02-24T11:41:41;100841.16;;;8.39;70.04
78411;BME280;67706;51.074;-1.796;2023-02-24T11:44:16;100847.47;;;8.40;70.51
78411;BME280;67706;51.074;-1.796;2023-02-24T11:46:48;100840.13;;;8.40;70.45
78411;BME280;67706;51.074;-1.796;2023-02-24T11:49:25;100829.38;;;8.39;70.44
78411;BME280;67706;51.074;-1.796;2023-02-24T11:51:54;100838.44;;;8.39;70.49
78411;BME280;67706;51.074;-1.796;2023-02-24T11:54:24;100836.13;;;8.28;70.83
78411;BME280;67706;51.074;-1.796;2023-02-24T11:56:54;100827.72;;;8.52;70.61
78411;BME280;67706;51.074;-1.796;2023-02-24T11:59:29;100827.28;;;8.78;71.12
78411;BME280;67706;51.074;-1.796;2023-02-24T12:02:01;100810.41;;;8.74;69.86
78411;BME280;67706;51.074;-1.796;2023-02-24T12:04:33;100813.34;;;8.73;70.07
78411;BME280;67706;51.074;-1.796;2023-02-24T12:07:05;100805.50;;;8.85;70.28
78411;BME280;67706;51.074;-1.796;2023-02-24T12:09:35;100802.56;;;8.71;70.39
78411;BME280;67706;51.074;-1.796;2023-02-24T12:12:08;100806.16;;;8.72;70.64
78411;BME280;67706;51.074;-1.796;2023-02-24T12:14:40;100801.31;;;8.59;70.94
78411;BME280;67706;51.074;-1.796;2023-02-24T12:17:16;100806.16;;;8.72;70.86
78411;BME280;67706;51.074;-1.796;2023-02-24T12:19:52;100791.31;;;8.52;70.79
78411;BME280;67706;51.074;-1.796;2023-02-24T12:22:25;100795.00;;;8.59;71.21
78411;BME280;67706;51.074;-1.796;2023-02-24T12:24:54;100799.66;;;8.73;71.07
78411;BME280;67706;51.074;-1.796;2023-02-24T12:27:34;100796.28;;;8.86;70.63
78411;BME280;67706;51.074;-1.796;2023-02-24T12:30:25;100786.75;;;8.96;70.34
78411;BME280;67706;51.074;-1.796;2023-02-24T12:32:59;100784.47;;;8.85;70.77
78411;BME280;67706;51.074;-1.796;2023-02-24T12:35:40;100783.06;;;9.04;70.54
78411;BME280;67706;51.074;-1.796;2023-02-24T12:38:20;100775.72;;;8.90;70.37
78411;BME280;67706;51.074;-1.796;2023-02-24T12:40:59;100778.53;;;8.96;70.42
78411;BME280;67706;51.074;-1.796;2023-02-24T12:43:36;100782.41;;;9.02;70.03
78411;BME280;67706;51.074;-1.796;2023-02-24T12:46:20;100783.25;;;9.02;70.15
78411;BME280;67706;51.074;-1.796;2023-02-24T12:49:10;100768.81;;;9.08;69.96
78411;BME280;67706;51.074;-1.796;2023-02-24T12:51:49;100765.03;;;9.09;69.79
78411;BME280;67706;51.074;-1.796;2023-02-24T12:54:22;100766.91;;;9.23;70.37
78411;BME280;67706;51.074;-1.796;2023-02-24T12:56:54;100762.34;;;9.30;69.91
78411;BME280;67706;51.074;-1.796;2023-02-24T12:59:27;100759.50;;;9.38;69.32
78411;BME280;67706;51.074;-1.796;2023-02-24T13:01:59;100755.41;;;9.28;69.48
78411;BME280;67706;51.074;-1.796;2023-02-24T13:04:36;100750.63;;;9.36;69.37
78411;BME280;67706;51.074;-1.796;2023-02-24T13:07:21;100744.38;;;9.57;69.10
78411;BME280;67706;51.074;-1.796;2023-02-24T13:10:07;100731.56;;;9.64;68.87
78411;BME280;67706;51.074;-1.796;2023-02-24T13:12:41;100725.78;;;9.52;69.00
78411;BME280;67706;51.074;-1.796;2023-02-24T13:15:18;100723.41;;;9.49;69.33
78411;BME280;67706;51.074;-1.796;2023-02-24T13:17:48;100724.28;;;9.50;69.50
78411;BME280;67706;51.074;-1.796;2023-02-24T13:20:25;100720.03;;;9.47;69.53
78411;BME280;67706;51.074;-1.796;2023-02-24T13:22:52;100719.06;;;9.76;69.08
78411;BME280;67706;51.074;-1.796;2023-02-24T13:25:20;100713.13;;;9.94;68.67